Time;durP1;ratioP1;P1;durP2;ratioP2;P2;SDS_P1;SDS_P2;PMS_P1;PMS_P2;Temp;Humidity;BMP_temperature;BMP_pressure;BME280_temperature;BME280_humidity;BME280_pressure;Samples;Min_cycle;Max_cycle;Signal;HPM_P1;HPM_P2
2022/07/21 00:02:02;;;;;;;29.50;11.02;;;;;;;;;;5093063;28;20043;-67
2022/07/21 00:05:06;;;;;;;26.77;10.13;;;;;;;;;;5094260;28;20047;-67
2022/07/21 00:08:12;;;;;;;21.20;10.07;;;;;;;;;;5095025;28;20047;-67
2022/07/21 00:11:17;;;;;;;22.15;9.18;;;;;;;;;;5094882;28;20051;-67
2022/07/21 00:14:21;;;;;;;19.10;9.90;;;;;;;;;;5094922;28;20047;-67
2022/07/21 00:17:25;;;;;;;21.10;9.60;;;;;;;;;;5095224;28;20047;-67
2022/07/21 00:20:30;;;;;;;23.63;9.60;;;;;;;;;;5094904;28;20106;-67
2022/07/21 00:23:34;;;;;;;14.85;8.88;;;;;;;;;;5094678;28;20055;-67
2022/07/21 00:26:38;;;;;;;24.08;10.38;;;;;;;;;;5095005;28;20039;-67
2022/07/21 00:29:43;;;;;;;27.30;10.02;;;;;;;;;;5094527;28;20043;-67
2022/07/21 00:32:47;;;;;;;21.60;9.68;;;;;;;;;;5094541;28;20047;-67
2022/07/21 00:35:51;;;;;;;26.45;9.68;;;;;;;;;;5094361;28;20047;-67
2022/07/21 00:38:56;;;;;;;22.83;10.38;;;;;;;;;;5094393;28;20491;-67
2022/07/21 00:42:00;;;;;;;22.85;9.70;;;;;;;;;;5094469;28;20490;-67
2022/07/21 00:45:06;;;;;;;22.40;10.55;;;;;;;;;;5094272;28;20043;-67
2022/07/21 00:48:10;;;;;;;22.58;9.45;;;;;;;;;;5094417;28;20043;-67
2022/07/21 00:51:14;;;;;;;20.90;10.27;;;;;;;;;;5093853;28;20047;-67
2022/07/21 00:54:19;;;;;;;25.60;10.25;;;;;;;;;;5094083;28;20628;-67
2022/07/21 00:57:23;;;;;;;23.73;10.07;;;;;;;;;;5094175;28;20039;-67
2022/07/21 01:00:29;;;;;;;21.27;9.65;;;;;;;;;;5094256;28;20047;-67
2022/07/21 01:03:33;;;;;;;21.98;10.85;;;;;;;;;;5094234;28;20051;-67
2022/07/21 01:06:37;;;;;;;21.10;9.57;;;;;;;;;;5094089;28;20047;-67
2022/07/21 01:09:42;;;;;;;20.02;9.55;;;;;;;;;;5094118;28;20063;-67
2022/07/21 01:12:46;;;;;;;26.80;9.63;;;;;;;;;;5093410;28;20051;-67
2022/07/21 01:15:51;;;;;;;25.80;10.10;;;;;;;;;;5093909;28;20047;-66
2022/07/21 01:18:55;;;;;;;14.55;9.30;;;;;;;;;;5093867;28;20047;-67
2022/07/21 01:21:59;;;;;;;19.95;9.80;;;;;;;;;;5093830;28;20051;-67
2022/07/21 01:25:04;;;;;;;21.63;9.13;;;;;;;;;;5093753;28;20039;-67
2022/07/21 01:28:08;;;;;;;19.30;9.63;;;;;;;;;;5093591;28;20510;-67
2022/07/21 01:31:12;;;;;;;25.95;9.48;;;;;;;;;;5093357;28;20054;-67
2022/07/21 01:34:17;;;;;;;20.23;9.00;;;;;;;;;;5093528;28;20042;-68
2022/07/21 01:37:23;;;;;;;18.65;9.73;;;;;;;;;;5093386;28;20039;-67
2022/07/21 01:43:50;;;;;;;25.98;10.55;;;;;;;;;;5093257;28;20047;-67
2022/07/21 01:46:54;;;;;;;25.63;9.07;;;;;;;;;;5093465;28;20051;-67
2022/07/21 01:49:58;;;;;;;29.73;10.20;;;;;;;;;;5092842;28;20051;-67
2022/07/21 01:53:03;;;;;;;25.65;9.32;;;;;;;;;;5093041;28;20058;-67
2022/07/21 01:56:08;;;;;;;25.10;9.80;;;;;;;;;;5093227;28;20503;-67
2022/07/21 01:59:11;;;;;;;19.38;8.93;;;;;;;;;;5093168;28;20043;-67
2022/07/21 02:02:20;;;;;;;18.85;9.98;;;;;;;;;;5091978;28;20036;-67
2022/07/21 02:05:25;;;;;;;19.50;9.90;;;;;;;;;;5092676;28;20054;-67
2022/07/21 02:08:29;;;;;;;17.55;9.00;;;;;;;;;;5092998;28;20517;-67
2022/07/21 02:11:33;;;;;;;15.52;8.77;;;;;;;;;;5092529;28;20098;-67
2022/07/21 02:14:38;;;;;;;19.75;9.68;;;;;;;;;;5092808;28;20039;-67
2022/07/21 02:17:43;;;;;;;18.05;10.27;;;;;;;;;;5092856;28;20052;-67
2022/07/21 02:20:47;;;;;;;18.55;9.65;;;;;;;;;;5092741;28;20039;-67
2022/07/21 02:23:52;;;;;;;24.75;9.45;;;;;;;;;;5092380;28;20058;-67
2022/07/21 02:26:56;;;;;;;17.42;8.63;;;;;;;;;;5092402;28;20043;-67
2022/07/21 02:30:00;;;;;;;21.38;9.80;;;;;;;;;;5092385;28;20391;-67
2022/07/21 02:33:05;;;;;;;19.30;10.18;;;;;;;;;;5092192;28;20062;-67
2022/07/21 02:36:09;;;;;;;18.33;9.48;;;;;;;;;;5092460;28;20506;-67
2022/07/21 02:39:13;;;;;;;16.65;8.73;;;;;;;;;;5092167;28;20110;-67
2022/07/21 02:42:18;;;;;;;20.52;8.90;;;;;;;;;;5092371;28;20047;-67
2022/07/21 02:45:22;;;;;;;26.67;9.85;;;;;;;;;;5092182;28;20039;-67
2022/07/21 02:48:27;;;;;;;24.35;9.50;;;;;;;;;;5091960;28;20043;-67
2022/07/21 02:51:31;;;;;;;20.35;9.57;;;;;;;;;;5051669;28;20068;-67
2022/07/21 02:54:36;;;;;;;14.27;9.20;;;;;;;;;;5051121;28;20528;-67
2022/07/21 02:57:40;;;;;;;23.38;9.32;;;;;;;;;;5051676;28;20051;-67
2022/07/21 03:00:48;;;;;;;27.17;10.10;;;;;;;;;;5051065;28;20413;-67
2022/07/21 03:03:52;;;;;;;23.77;10.57;;;;;;;;;;5051454;28;20052;-67
2022/07/21 03:06:57;;;;;;;24.17;9.93;;;;;;;;;;5051464;28;20048;-67
2022/07/21 03:10:01;;;;;;;24.33;9.98;;;;;;;;;;5051627;28;20036;-67
2022/07/21 03:13:06;;;;;;;22.90;11.40;;;;;;;;;;5051889;28;20048;-67
2022/07/21 03:16:11;;;;;;;23.45;11.52;;;;;;;;;;5051644;28;20051;-67
2022/07/21 03:19:15;;;;;;;24.33;13.27;;;;;;;;;;5051290;28;20507;-67
2022/07/21 03:22:19;;;;;;;24.30;13.43;;;;;;;;;;5051733;28;20056;-67
2022/07/21 03:25:24;;;;;;;31.58;14.10;;;;;;;;;;5051052;28;20291;-67
2022/07/21 03:28:28;;;;;;;23.83;14.60;;;;;;;;;;5051179;28;20036;-67
2022/07/21 03:31:32;;;;;;;32.15;14.93;;;;;;;;;;5050166;28;20056;-67
2022/07/21 03:34:36;;;;;;;23.42;14.70;;;;;;;;;;5051190;28;20551;-67
2022/07/21 03:37:45;;;;;;;25.08;14.43;;;;;;;;;;5050946;28;20048;-66
2022/07/21 03:40:49;;;;;;;33.72;15.13;;;;;;;;;;5051114;28;20119;-66
2022/07/21 03:43:54;;;;;;;32.22;15.80;;;;;;;;;;5050658;28;20047;-66
2022/07/21 03:46:59;;;;;;;28.05;16.85;;;;;;;;;;5050711;28;20500;-66
2022/07/21 03:50:05;;;;;;;27.23;16.42;;;;;;;;;;5068688;28;20077;-66
2022/07/21 03:53:09;;;;;;;25.95;17.42;;;;;;;;;;5091204;28;20059;-66
2022/07/21 03:56:13;;;;;;;38.38;17.58;;;;;;;;;;5090914;28;20047;-66
2022/07/21 03:59:18;;;;;;;36.63;21.15;;;;;;;;;;5091116;28;20047;-66
2022/07/21 04:02:22;;;;;;;29.23;18.20;;;;;;;;;;5091042;28;20051;-66
2022/07/21 04:05:27;;;;;;;35.10;18.63;;;;;;;;;;5089726;28;20039;-66
2022/07/21 04:08:31;;;;;;;24.40;13.90;;;;;;;;;;5091071;28;20150;-66
2022/07/21 04:11:35;;;;;;;27.88;13.73;;;;;;;;;;5090810;28;20071;-66
2022/07/21 04:14:39;;;;;;;25.75;14.02;;;;;;;;;;5090611;28;20047;-66
2022/07/21 04:17:43;;;;;;;25.55;14.00;;;;;;;;;;5090651;28;20059;-66
2022/07/21 04:20:48;;;;;;;22.08;13.20;;;;;;;;;;5089896;28;20035;-66
2022/07/21 04:23:52;;;;;;;22.92;12.32;;;;;;;;;;5090417;28;20035;-66
2022/07/21 04:26:56;;;;;;;22.52;12.80;;;;;;;;;;5090553;28;20042;-66
2022/07/21 04:30:01;;;;;;;34.53;13.73;;;;;;;;;;5090723;28;20039;-66
2022/07/21 04:33:06;;;;;;;32.30;15.15;;;;;;;;;;5090782;28;20391;-66
2022/07/21 04:36:11;;;;;;;30.55;18.77;;;;;;;;;;5090724;28;20043;-66
2022/07/21 04:39:15;;;;;;;47.05;22.83;;;;;;;;;;5090829;28;20047;-66
2022/07/21 04:42:20;;;;;;;26.45;14.60;;;;;;;;;;5090446;28;20047;-66
2022/07/21 04:45:24;;;;;;;38.22;21.83;;;;;;;;;;5090283;28;20047;-66
2022/07/21 04:48:28;;;;;;;43.55;24.98;;;;;;;;;;5091641;28;20039;-66
2022/07/21 04:51:33;;;;;;;32.83;17.80;;;;;;;;;;5094132;28;20059;-66
2022/07/21 04:54:37;;;;;;;32.17;16.15;;;;;;;;;;5093447;28;20047;-66
2022/07/21 04:57:46;;;;;;;33.63;17.25;;;;;;;;;;5093091;28;20538;-66
2022/07/21 05:00:50;;;;;;;49.80;16.10;;;;;;;;;;5094393;28;20047;-66
2022/07/21 05:03:54;;;;;;;39.63;15.85;;;;;;;;;;5093724;28;20145;-66
2022/07/21 05:06:58;;;;;;;44.50;15.68;;;;;;;;;;5093995;28;20058;-66
2022/07/21 05:10:07;;;;;;;46.25;18.70;;;;;;;;;;5093184;28;20063;-66
2022/07/21 05:13:11;;;;;;;46.00;24.85;;;;;;;;;;5093615;28;20043;-66
2022/07/21 05:16:15;;;;;;;47.97;23.48;;;;;;;;;;5093785;28;20062;-66
2022/07/21 05:19:19;;;;;;;54.13;25.20;;;;;;;;;;5093647;28;20431;-66
2022/07/21 05:22:24;;;;;;;43.45;22.20;;;;;;;;;;5093590;28;20051;-66
2022/07/21 05:25:28;;;;;;;38.50;19.58;;;;;;;;;;5093256;28;20043;-66
2022/07/21 05:28:33;;;;;;;44.75;18.25;;;;;;;;;;5093553;28;20047;-67
2022/07/21 05:31:37;;;;;;;35.72;18.50;;;;;;;;;;5093550;28;20051;-66
2022/07/21 05:34:42;;;;;;;45.80;19.00;;;;;;;;;;5093367;28;20039;-66
2022/07/21 05:37:46;;;;;;;80.45;27.83;;;;;;;;;;5093511;28;20415;-67
2022/07/21 05:40:51;;;;;;;63.47;25.98;;;;;;;;;;5092573;28;20047;-67
2022/07/21 05:43:56;;;;;;;56.45;22.42;;;;;;;;;;5093447;28;20043;-69
2022/07/21 05:47:00;;;;;;;29.60;18.63;;;;;;;;;;5093147;28;20130;-69
2022/07/21 05:50:05;;;;;;;37.20;16.48;;;;;;;;;;5092973;28;20053;-68
2022/07/21 05:53:09;;;;;;;30.13;16.92;;;;;;;;;;5092021;28;20511;-68
2022/07/21 05:56:14;;;;;;;50.25;16.00;;;;;;;;;;5093048;28;20420;-68
2022/07/21 05:59:18;;;;;;;31.73;13.82;;;;;;;;;;5092633;28;20541;-68
2022/07/21 06:02:22;;;;;;;30.65;12.63;;;;;;;;;;5092983;28;20047;-69
2022/07/21 06:05:27;;;;;;;28.30;13.15;;;;;;;;;;5092537;28;20039;-69
2022/07/21 06:08:31;;;;;;;30.33;13.55;;;;;;;;;;5092710;28;20035;-68
2022/07/21 06:11:35;;;;;;;30.70;14.57;;;;;;;;;;5092484;28;20051;-69
2022/07/21 06:14:39;;;;;;;25.63;12.32;;;;;;;;;;5080211;28;20051;-68
2022/07/21 06:17:45;;;;;;;33.80;13.45;;;;;;;;;;5092243;28;20066;-68
2022/07/21 06:20:49;;;;;;;29.48;14.95;;;;;;;;;;5092320;28;20130;-68
2022/07/21 06:23:53;;;;;;;42.97;13.48;;;;;;;;;;5092327;28;20062;-67
2022/07/21 06:26:58;;;;;;;29.67;12.60;;;;;;;;;;5092451;28;20051;-68
2022/07/21 06:30:02;;;;;;;27.95;12.35;;;;;;;;;;5092372;28;20043;-68
2022/07/21 06:33:06;;;;;;;31.00;13.57;;;;;;;;;;5091826;28;20043;-67
2022/07/21 06:36:11;;;;;;;31.88;12.80;;;;;;;;;;5092320;28;20114;-68
2022/07/21 06:39:15;;;;;;;53.60;13.73;;;;;;;;;;5092416;28;20047;-68
2022/07/21 06:42:20;;;;;;;40.85;13.98;;;;;;;;;;5092221;28;20046;-70
2022/07/21 06:45:24;;;;;;;39.17;14.32;;;;;;;;;;5091169;28;20043;-68
2022/07/21 06:48:29;;;;;;;45.92;14.77;;;;;;;;;;5092108;28;20058;-68
2022/07/21 06:51:34;;;;;;;53.85;15.80;;;;;;;;;;5091849;28;20511;-69
2022/07/21 06:54:39;;;;;;;43.45;15.35;;;;;;;;;;5091818;28;20032;-69
2022/07/21 06:57:43;;;;;;;28.10;13.18;;;;;;;;;;5090954;28;20043;-69
2022/07/21 07:00:48;;;;;;;26.00;12.35;;;;;;;;;;5091982;28;20059;-69
2022/07/21 07:03:52;;;;;;;21.60;12.60;;;;;;;;;;5091805;28;20149;-68
2022/07/21 07:06:57;;;;;;;29.58;12.95;;;;;;;;;;5091725;28;20046;-68
2022/07/21 07:10:02;;;;;;;26.77;12.10;;;;;;;;;;5091732;28;20058;-68
2022/07/21 07:13:06;;;;;;;26.75;12.27;;;;;;;;;;5091462;28;20047;-68
2022/07/21 07:16:10;;;;;;;30.92;12.10;;;;;;;;;;5091471;28;20201;-68
2022/07/21 07:19:14;;;;;;;43.60;12.88;;;;;;;;;;5090987;28;20392;-68
2022/07/21 07:22:19;;;;;;;26.92;11.48;;;;;;;;;;5089796;28;20366;-68
2022/07/21 07:25:24;;;;;;;30.50;11.55;;;;;;;;;;5091047;28;20035;-68
2022/07/21 07:28:29;;;;;;;21.73;12.38;;;;;;;;;;5091151;28;20039;-69
2022/07/21 07:31:33;;;;;;;26.50;10.93;;;;;;;;;;5090877;28;20043;-68
2022/07/21 07:34:37;;;;;;;38.33;12.75;;;;;;;;;;5090953;28;20411;-68
2022/07/21 07:37:42;;;;;;;39.78;11.90;;;;;;;;;;5091038;28;20047;-68
2022/07/21 07:40:47;;;;;;;29.58;12.00;;;;;;;;;;5090889;28;20047;-68
2022/07/21 07:43:51;;;;;;;20.13;10.63;;;;;;;;;;5090421;28;20039;-68
2022/07/21 07:46:55;;;;;;;27.52;11.57;;;;;;;;;;5091010;28;20051;-68
2022/07/21 07:50:00;;;;;;;26.25;11.93;;;;;;;;;;5090934;28;20055;-68
2022/07/21 07:53:04;;;;;;;33.38;11.55;;;;;;;;;;5090642;28;20055;-70
2022/07/21 07:56:08;;;;;;;33.50;11.07;;;;;;;;;;5091039;28;20043;-71
2022/07/21 07:59:13;;;;;;;30.45;11.02;;;;;;;;;;5091039;28;20043;-69
2022/07/21 08:02:17;;;;;;;21.67;11.07;;;;;;;;;;5090941;28;20046;-70
2022/07/21 08:05:21;;;;;;;36.75;11.50;;;;;;;;;;5090795;28;20118;-68
2022/07/21 08:08:25;;;;;;;29.65;9.75;;;;;;;;;;5090673;28;20039;-69
2022/07/21 08:11:29;;;;;;;24.10;9.75;;;;;;;;;;5089625;28;20055;-66
2022/07/21 08:14:34;;;;;;;30.80;10.07;;;;;;;;;;5090601;28;20419;-67
2022/07/21 08:17:38;;;;;;;27.45;8.10;;;;;;;;;;5090233;28;20522;-69
2022/07/21 08:20:43;;;;;;;22.35;8.98;;;;;;;;;;5090026;28;20043;-65
2022/07/21 08:23:47;;;;;;;22.58;10.57;;;;;;;;;;5093624;28;20055;-68
2022/07/21 08:26:52;;;;;;;24.25;9.10;;;;;;;;;;5094887;28;20051;-67
2022/07/21 08:29:56;;;;;;;24.38;9.45;;;;;;;;;;5094501;28;20043;-67
2022/07/21 08:33:01;;;;;;;19.42;8.90;;;;;;;;;;5094413;28;20506;-68
2022/07/21 08:36:05;;;;;;;22.92;8.85;;;;;;;;;;5094680;28;20059;-68
2022/07/21 08:39:10;;;;;;;25.15;8.45;;;;;;;;;;5094653;28;20456;-66
2022/07/21 08:42:15;;;;;;;15.55;7.28;;;;;;;;;;5094066;28;20495;-67
2022/07/21 08:45:20;;;;;;;25.17;7.82;;;;;;;;;;5094096;28;20047;-68
2022/07/21 08:48:25;;;;;;;20.50;6.95;;;;;;;;;;5093711;28;20058;-66
2022/07/21 08:51:33;;;;;;;19.45;6.28;;;;;;;;;;5094243;28;20047;-66
2022/07/21 08:54:37;;;;;;;14.20;5.70;;;;;;;;;;5093288;28;20047;-67
2022/07/21 08:57:42;;;;;;;9.57;4.38;;;;;;;;;;5093904;28;20035;-68
2022/07/21 09:00:48;;;;;;;11.75;5.25;;;;;;;;;;5092708;28;20040;-67
2022/07/21 09:03:52;;;;;;;19.75;5.60;;;;;;;;;;5093452;28;20035;-67
2022/07/21 09:06:57;;;;;;;9.27;5.40;;;;;;;;;;5093780;28;20047;-67
2022/07/21 09:10:04;;;;;;;9.70;5.18;;;;;;;;;;5092649;28;20044;-67
2022/07/21 09:13:09;;;;;;;11.75;5.10;;;;;;;;;;5091906;28;20040;-67
2022/07/21 09:16:13;;;;;;;9.82;4.35;;;;;;;;;;5093290;28;20035;-67
2022/07/21 09:19:24;;;;;;;6.68;4.28;;;;;;;;;;5093139;28;20040;-68
2022/07/21 09:22:29;;;;;;;8.65;4.05;;;;;;;;;;5093622;28;20036;-68
2022/07/21 09:25:53;;;;;;;8.25;3.60;;;;;;;;;;5093467;28;20036;-69
2022/07/21 09:29:10;;;;;;;12.38;4.22;;;;;;;;;;5093109;28;20036;-68
2022/07/21 09:32:22;;;;;;;10.48;3.95;;;;;;;;;;5092894;28;20051;-70
2022/07/21 09:35:26;;;;;;;9.43;3.40;;;;;;;;;;5092284;28;20043;-67
2022/07/21 09:38:31;;;;;;;9.80;2.90;;;;;;;;;;5092990;28;20032;-67
2022/07/21 09:41:36;;;;;;;10.60;2.95;;;;;;;;;;5093314;28;20036;-69
2022/07/21 09:44:42;;;;;;;12.88;3.45;;;;;;;;;;5093380;28;20510;-68
2022/07/21 09:47:46;;;;;;;18.35;3.28;;;;;;;;;;5093371;28;20507;-68
2022/07/21 09:50:51;;;;;;;19.50;3.90;;;;;;;;;;5092738;28;20047;-68
2022/07/21 09:54:02;;;;;;;12.98;3.65;;;;;;;;;;5092860;28;20106;-68
2022/07/21 09:57:07;;;;;;;11.15;3.53;;;;;;;;;;5093025;28;20039;-69
2022/07/21 10:00:13;;;;;;;12.20;4.28;;;;;;;;;;5092890;28;20419;-70
2022/07/21 10:03:17;;;;;;;13.02;4.45;;;;;;;;;;5093462;28;20039;-67
2022/07/21 10:06:29;;;;;;;7.25;3.72;;;;;;;;;;5092663;28;20046;-68
2022/07/21 10:09:33;;;;;;;12.55;4.45;;;;;;;;;;5092555;28;20036;-68
2022/07/21 10:12:38;;;;;;;20.98;5.57;;;;;;;;;;5092421;28;20054;-67
2022/07/21 10:15:44;;;;;;;11.82;5.70;;;;;;;;;;5092864;28;20054;-67
2022/07/21 10:19:08;;;;;;;14.15;5.05;;;;;;;;;;5092720;28;20043;-67
2022/07/21 10:22:31;;;;;;;15.15;5.57;;;;;;;;;;5091384;28;20376;-67
2022/07/21 10:25:35;;;;;;;18.70;6.20;;;;;;;;;;5092708;28;20047;-68
2022/07/21 10:28:40;;;;;;;15.57;5.60;;;;;;;;;;5079473;28;20046;-68
2022/07/21 10:31:44;;;;;;;9.25;5.05;;;;;;;;;;5092014;28;20526;-69
2022/07/21 10:34:48;;;;;;;19.20;5.80;;;;;;;;;;5091804;28;20035;-67
2022/07/21 10:37:53;;;;;;;18.13;5.90;;;;;;;;;;5092111;28;20129;-67
2022/07/21 10:40:57;;;;;;;11.75;5.65;;;;;;;;;;5092411;28;20494;-67
2022/07/21 10:44:01;;;;;;;14.60;5.80;;;;;;;;;;5092167;28;20494;-68
2022/07/21 10:47:06;;;;;;;15.02;6.45;;;;;;;;;;5090834;28;20054;-67
2022/07/21 10:50:10;;;;;;;12.73;5.72;;;;;;;;;;5091544;28;20067;-66
2022/07/21 10:53:15;;;;;;;14.27;5.50;;;;;;;;;;5091493;28;20051;-67
2022/07/21 10:56:27;;;;;;;12.70;5.68;;;;;;;;;;5091517;28;20502;-70
2022/07/21 10:59:51;;;;;;;14.23;4.82;;;;;;;;;;5091793;28;20055;-71
2022/07/21 11:03:00;;;;;;;11.63;5.07;;;;;;;;;;5091146;28;20073;-68
2022/07/21 11:06:07;;;;;;;9.70;5.20;;;;;;;;;;5090547;28;20047;-68
2022/07/21 11:09:11;;;;;;;9.52;5.43;;;;;;;;;;5091622;28;20365;-69
2022/07/21 11:12:16;;;;;;;12.50;5.82;;;;;;;;;;5091598;28;20051;-69
2022/07/21 11:15:39;;;;;;;11.35;5.22;;;;;;;;;;5091405;28;20043;-69
2022/07/21 11:18:43;;;;;;;29.13;5.88;;;;;;;;;;5091158;28;20047;-69
2022/07/21 11:21:48;;;;;;;16.02;5.53;;;;;;;;;;5091319;28;20043;-68
2022/07/21 11:25:05;;;;;;;10.68;5.32;;;;;;;;;;5090815;28;20047;-68
2022/07/21 11:28:17;;;;;;;9.60;5.03;;;;;;;;;;5091096;28;20047;-68
2022/07/21 11:31:23;;;;;;;14.40;5.03;;;;;;;;;;5090594;28;20027;-68
2022/07/21 11:34:39;;;;;;;9.30;4.43;;;;;;;;;;5090753;28;20075;-69
2022/07/21 11:37:44;;;;;;;14.93;5.70;;;;;;;;;;5091390;28;20052;-68
2022/07/21 11:40:48;;;;;;;13.00;5.63;;;;;;;;;;5091321;28;20046;-68
2022/07/21 11:43:53;;;;;;;7.35;4.15;;;;;;;;;;5090880;28;20058;-68
2022/07/21 11:46:59;;;;;;;10.60;4.53;;;;;;;;;;5090857;28;20040;-69
2022/07/21 11:50:06;;;;;;;18.77;4.90;;;;;;;;;;5090719;28;20271;-69
2022/07/21 11:53:10;;;;;;;9.75;4.13;;;;;;;;;;5090973;28;20055;-68
2022/07/21 11:56:16;;;;;;;11.60;4.38;;;;;;;;;;5090869;28;20036;-68
2022/07/21 11:59:20;;;;;;;6.97;3.65;;;;;;;;;;5097830;28;20055;-68
2022/07/21 12:02:26;;;;;;;9.40;4.47;;;;;;;;;;5097406;28;20032;-68
2022/07/21 12:05:30;;;;;;;7.35;4.13;;;;;;;;;;5097384;28;20044;-68
2022/07/21 12:08:35;;;;;;;10.57;4.03;;;;;;;;;;5097418;28;20028;-68
2022/07/21 12:11:39;;;;;;;11.27;3.97;;;;;;;;;;5097409;28;20055;-68
2022/07/21 12:15:03;;;;;;;5.55;3.65;;;;;;;;;;5085069;28;20055;-68
2022/07/21 12:18:08;;;;;;;9.15;3.60;;;;;;;;;;5097472;28;20036;-68
2022/07/21 12:21:13;;;;;;;7.40;3.25;;;;;;;;;;5096726;28;20491;-68
2022/07/21 12:24:19;;;;;;;5.68;3.30;;;;;;;;;;5097657;28;20032;-68
2022/07/21 12:27:23;;;;;;;6.40;3.20;;;;;;;;;;5096976;28;20036;-68
2022/07/21 12:30:33;;;;;;;5.28;3.30;;;;;;;;;;5097761;28;20487;-68
2022/07/21 12:33:37;;;;;;;19.00;3.58;;;;;;;;;;5097312;28;20055;-68
2022/07/21 12:36:43;;;;;;;9.60;3.22;;;;;;;;;;5097743;28;20039;-67
2022/07/21 12:40:04;;;;;;;8.95;3.30;;;;;;;;;;5097582;28;20048;-67
2022/07/21 12:43:08;;;;;;;11.82;3.22;;;;;;;;;;5096966;28;20044;-67
2022/07/21 12:46:18;;;;;;;7.88;3.22;;;;;;;;;;5097285;28;20384;-67
2022/07/21 12:49:22;;;;;;;11.73;3.88;;;;;;;;;;5096897;28;20044;-68
2022/07/21 12:52:27;;;;;;;13.80;3.78;;;;;;;;;;5096732;28;20059;-66
2022/07/21 12:55:31;;;;;;;15.20;3.25;;;;;;;;;;5097412;28;20376;-67
2022/07/21 12:58:36;;;;;;;11.85;3.05;;;;;;;;;;5096702;28;20106;-66
2022/07/21 13:01:40;;;;;;;13.18;3.63;;;;;;;;;;5097174;28;20384;-66
2022/07/21 13:04:45;;;;;;;14.90;3.13;;;;;;;;;;5096986;28;20043;-66
2022/07/21 13:07:50;;;;;;;6.97;2.70;;;;;;;;;;5096846;28;20039;-70
2022/07/21 13:10:54;;;;;;;9.95;2.95;;;;;;;;;;5093345;28;20369;-67
2022/07/21 13:14:02;;;;;;;12.13;2.85;;;;;;;;;;5093557;28;20139;-69
2022/07/21 13:17:07;;;;;;;13.35;3.08;;;;;;;;;;5093552;28;20047;-68
2022/07/21 13:20:11;;;;;;;16.20;3.63;;;;;;;;;;5093488;28;20067;-71
2022/07/21 13:23:16;;;;;;;7.10;3.10;;;;;;;;;;5093525;28;20054;-67
2022/07/21 13:26:20;;;;;;;7.45;2.78;;;;;;;;;;5092970;28;20282;-68
2022/07/21 13:29:25;;;;;;;6.50;2.97;;;;;;;;;;5093209;28;20389;-67
2022/07/21 13:32:29;;;;;;;5.68;2.92;;;;;;;;;;5080828;28;20488;-67
2022/07/21 13:35:33;;;;;;;8.70;4.85;;;;;;;;;;5093440;28;20385;-67
2022/07/21 13:38:37;;;;;;;16.35;3.85;;;;;;;;;;5093751;28;20036;-67
2022/07/21 13:41:42;;;;;;;8.55;6.18;;;;;;;;;;5093574;28;20047;-67
2022/07/21 13:44:46;;;;;;;14.52;3.90;;;;;;;;;;5093208;28;20044;-67
2022/07/21 13:47:50;;;;;;;11.35;3.40;;;;;;;;;;5093299;28;20410;-67
2022/07/21 13:50:54;;;;;;;10.77;3.65;;;;;;;;;;5092930;28;20079;-66
2022/07/21 13:53:59;;;;;;;9.18;5.22;;;;;;;;;;5092871;28;20058;-69
2022/07/21 13:57:03;;;;;;;24.92;10.90;;;;;;;;;;5093193;28;20036;-67
2022/07/21 14:00:09;;;;;;;12.73;6.93;;;;;;;;;;5093034;28;20047;-67
2022/07/21 14:03:14;;;;;;;9.55;5.20;;;;;;;;;;5092468;28;20043;-68
2022/07/21 14:06:18;;;;;;;10.90;3.90;;;;;;;;;;5092951;28;20036;-66
2022/07/21 14:09:22;;;;;;;9.45;3.97;;;;;;;;;;5092895;28;20050;-66
2022/07/21 14:12:27;;;;;;;6.97;3.53;;;;;;;;;;5092617;28;20456;-66
2022/07/21 14:15:31;;;;;;;10.63;3.00;;;;;;;;;;5092344;28;20032;-66
2022/07/21 14:18:36;;;;;;;13.30;3.75;;;;;;;;;;5090636;28;20054;-66
2022/07/21 14:21:40;;;;;;;5.10;3.35;;;;;;;;;;5092259;28;20047;-66
2022/07/21 14:28:07;;;;;;;8.00;4.10;;;;;;;;;;5091526;28;20044;-67
2022/07/21 14:31:12;;;;;;;13.63;4.20;;;;;;;;;;5079667;28;20495;-67
2022/07/21 14:34:17;;;;;;;29.42;4.43;;;;;;;;;;5092092;28;20067;-66
2022/07/21 14:37:21;;;;;;;9.68;4.20;;;;;;;;;;5091819;28;20051;-67
2022/07/21 14:40:25;;;;;;;8.18;3.97;;;;;;;;;;5092206;28;20040;-67
2022/07/21 14:43:29;;;;;;;12.35;3.67;;;;;;;;;;5092096;28;20044;-67
2022/07/21 14:46:34;;;;;;;69.63;7.22;;;;;;;;;;5091970;28;20043;-67
2022/07/21 14:49:38;;;;;;;12.90;3.72;;;;;;;;;;5091890;28;20055;-68
2022/07/21 14:52:43;;;;;;;26.17;5.03;;;;;;;;;;5091815;28;20503;-68
2022/07/21 14:55:47;;;;;;;14.32;4.35;;;;;;;;;;5091639;28;20085;-68
2022/07/21 14:58:51;;;;;;;10.38;4.00;;;;;;;;;;5091688;28;20047;-68
2022/07/21 15:01:55;;;;;;;13.75;4.25;;;;;;;;;;5091918;28;20047;-69
2022/07/21 15:05:00;;;;;;;12.43;3.60;;;;;;;;;;5091418;28;20051;-69
2022/07/21 15:08:04;;;;;;;10.55;3.95;;;;;;;;;;5091726;28;20039;-69
2022/07/21 15:11:08;;;;;;;12.52;3.50;;;;;;;;;;5090506;28;20047;-69
2022/07/21 15:14:13;;;;;;;11.05;3.22;;;;;;;;;;5091545;28;20407;-67
2022/07/21 15:17:17;;;;;;;13.98;3.00;;;;;;;;;;5091316;28;20503;-66
2022/07/21 15:20:21;;;;;;;7.38;3.00;;;;;;;;;;5090655;28;20118;-66
2022/07/21 15:23:26;;;;;;;5.97;2.92;;;;;;;;;;5090699;28;20032;-67
2022/07/21 15:26:30;;;;;;;10.88;2.90;;;;;;;;;;5091238;28;20369;-69
2022/07/21 15:29:35;;;;;;;8.23;2.90;;;;;;;;;;5091084;28;20043;-67
2022/07/21 15:32:39;;;;;;;14.18;3.20;;;;;;;;;;5090414;28;20040;-68
2022/07/21 15:35:44;;;;;;;11.65;3.33;;;;;;;;;;5091054;28;20047;-68
2022/07/21 15:38:49;;;;;;;9.70;3.30;;;;;;;;;;5090893;28;20047;-67
2022/07/21 15:41:54;;;;;;;8.48;3.08;;;;;;;;;;5091061;28;20040;-67
2022/07/21 15:44:59;;;;;;;14.30;4.43;;;;;;;;;;5090214;28;20028;-69
2022/07/21 15:48:04;;;;;;;11.10;4.30;;;;;;;;;;5090911;28;20047;-68
2022/07/21 15:51:08;;;;;;;14.75;3.75;;;;;;;;;;5090779;28;20051;-68
2022/07/21 15:54:12;;;;;;;11.57;2.80;;;;;;;;;;5091217;28;20055;-67
2022/07/21 15:57:16;;;;;;;7.75;3.00;;;;;;;;;;5090315;28;20044;-69
2022/07/21 16:00:21;;;;;;;6.55;3.25;;;;;;;;;;5090756;28;20036;-69
2022/07/21 16:03:25;;;;;;;14.02;3.33;;;;;;;;;;5089717;28;20040;-70
2022/07/21 16:06:30;;;;;;;17.23;3.22;;;;;;;;;;5089493;28;20427;-68
2022/07/21 16:09:35;;;;;;;27.63;5.63;;;;;;;;;;5089496;28;20235;-68
2022/07/21 16:12:39;;;;;;;12.80;3.65;;;;;;;;;;5088584;28;20408;-68
2022/07/21 16:15:43;;;;;;;8.98;3.03;;;;;;;;;;5089601;28;20510;-69
2022/07/21 16:18:47;;;;;;;11.38;3.30;;;;;;;;;;5089514;28;20048;-69
2022/07/21 16:21:53;;;;;;;8.48;2.72;;;;;;;;;;5089889;28;20148;-68
2022/07/21 16:24:57;;;;;;;9.23;3.25;;;;;;;;;;5090286;28;20040;-68
2022/07/21 16:28:01;;;;;;;12.55;3.28;;;;;;;;;;5090503;28;20583;-68
2022/07/21 16:31:06;;;;;;;6.32;2.88;;;;;;;;;;5090644;28;20052;-68
2022/07/21 16:34:10;;;;;;;9.98;2.67;;;;;;;;;;5089959;28;20052;-67
2022/07/21 16:37:14;;;;;;;9.90;3.33;;;;;;;;;;5090454;28;20036;-67
2022/07/21 16:40:19;;;;;;;15.15;3.10;;;;;;;;;;5090471;28;20381;-67
2022/07/21 16:43:23;;;;;;;13.68;3.50;;;;;;;;;;5090383;28;20090;-67
2022/07/21 16:46:28;;;;;;;17.42;3.47;;;;;;;;;;5094131;28;20399;-67
2022/07/21 16:49:32;;;;;;;9.35;3.00;;;;;;;;;;5094271;28;20055;-67
2022/07/21 16:52:37;;;;;;;15.90;3.35;;;;;;;;;;5093814;28;20048;-68
2022/07/21 16:55:41;;;;;;;8.48;2.72;;;;;;;;;;5094035;28;20043;-67
2022/07/21 16:58:45;;;;;;;6.53;2.75;;;;;;;;;;5094141;28;20036;-67
2022/07/21 17:01:49;;;;;;;12.25;3.10;;;;;;;;;;5093606;28;20040;-67
2022/07/21 17:04:53;;;;;;;7.90;2.75;;;;;;;;;;5094105;28;20047;-67
2022/07/21 17:07:58;;;;;;;10.23;2.92;;;;;;;;;;5093842;28;20183;-69
2022/07/21 17:11:02;;;;;;;6.47;2.80;;;;;;;;;;5093693;28;20063;-72
2022/07/21 17:14:06;;;;;;;11.85;3.20;;;;;;;;;;5093444;28;20052;-71
2022/07/21 17:17:11;;;;;;;12.15;3.00;;;;;;;;;;5092774;28;20067;-70
2022/07/21 17:20:15;;;;;;;13.55;3.78;;;;;;;;;;5092680;28;20039;-71
2022/07/21 17:23:20;;;;;;;11.73;5.00;;;;;;;;;;5093211;28;20039;-69
2022/07/21 17:26:24;;;;;;;11.23;4.50;;;;;;;;;;5093763;28;20059;-70
2022/07/21 17:29:28;;;;;;;9.27;4.45;;;;;;;;;;5093440;28;20031;-70
2022/07/21 17:32:33;;;;;;;10.57;3.75;;;;;;;;;;5093472;28;20040;-70
2022/07/21 17:35:37;;;;;;;9.00;3.55;;;;;;;;;;5093152;28;20039;-69
2022/07/21 17:38:41;;;;;;;7.82;3.42;;;;;;;;;;5093194;28;20036;-70
2022/07/21 17:41:46;;;;;;;16.60;3.35;;;;;;;;;;5093086;28;20032;-69
2022/07/21 17:44:51;;;;;;;12.57;3.20;;;;;;;;;;5093449;28;20051;-70
2022/07/21 17:47:55;;;;;;;6.97;2.97;;;;;;;;;;5093269;28;20055;-71
2022/07/21 17:51:00;;;;;;;12.02;3.55;;;;;;;;;;5092758;28;20044;-74
2022/07/21 17:54:04;;;;;;;16.70;6.05;;;;;;;;;;5091732;28;20059;-71
2022/07/21 18:00:31;;;;;;;12.60;3.03;;;;;;;;;;5092837;28;20395;-71
2022/07/21 18:03:36;;;;;;;5.05;2.85;;;;;;;;;;5092008;28;20391;-71
2022/07/21 18:06:40;;;;;;;10.88;2.53;;;;;;;;;;5092198;28;20036;-71
2022/07/21 18:09:44;;;;;;;6.43;3.17;;;;;;;;;;5092695;28;20047;-70
2022/07/21 18:12:48;;;;;;;7.72;2.20;;;;;;;;;;5091102;28;20040;-71
2022/07/21 18:15:53;;;;;;;6.22;2.50;;;;;;;;;;5080159;28;20037;-71
2022/07/21 18:18:57;;;;;;;5.25;2.90;;;;;;;;;;5092657;28;20036;-71
2022/07/21 18:22:01;;;;;;;5.60;3.10;;;;;;;;;;5091511;28;20036;-71